sensor_id;sensor_type;location;lat;lon;timestamp;P1;durP1;ratioP1;P2;durP2;ratioP2
7703;SDS011;3894;49.700;10.770;2023-10-09T00:00:04;6.07;;;2.38;;
7703;SDS011;3894;49.700;10.770;2023-10-09T00:02:51;6.18;;;2.50;;
7703;SDS011;3894;49.700;10.770;2023-10-09T00:05:16;4.90;;;1.98;;
7703;SDS011;3894;49.700;10.770;2023-10-09T00:07:52;6.65;;;2.28;;
7703;SDS011;3894;49.700;10.770;2023-10-09T00:10:21;6.45;;;2.30;;
7703;SDS011;3894;49.700;10.770;2023-10-09T00:12:47;5.60;;;2.10;;
7703;SDS011;3894;49.700;10.770;2023-10-09T00:15:14;6.82;;;2.00;;
7703;SDS011;3894;49.700;10.770;2023-10-09T00:17:42;5.55;;;1.67;;
7703;SDS011;3894;49.700;10.770;2023-10-09T00:20:12;6.13;;;1.75;;
7703;SDS011;3894;49.700;10.770;2023-10-09T00:22:44;4.95;;;1.80;;
7703;SDS011;3894;49.700;10.770;2023-10-09T00:25:11;6.20;;;1.40;;
7703;SDS011;3894;49.700;10.770;2023-10-09T00:27:38;5.07;;;1.35;;
7703;SDS011;3894;49.700;10.770;2023-10-09T00:30:07;5.70;;;1.15;;
7703;SDS011;3894;49.700;10.770;2023-10-09T00:32:40;6.10;;;1.98;;
7703;SDS011;3894;49.700;10.770;2023-10-09T00:35:10;4.93;;;1.20;;
7703;SDS011;3894;49.700;10.770;2023-10-09T00:37:58;4.30;;;1.48;;
7703;SDS011;3894;49.700;10.770;2023-10-09T00:40:31;5.20;;;1.40;;
7703;SDS011;3894;49.700;10.770;2023-10-09T00:45:31;5.13;;;1.40;;
7703;SDS011;3894;49.700;10.770;2023-10-09T00:47:58;5.55;;;1.77;;
7703;SDS011;3894;49.700;10.770;2023-10-09T00:50:26;5.53;;;2.17;;
7703;SDS011;3894;49.700;10.770;2023-10-09T00:52:52;5.13;;;2.00;;
7703;SDS011;3894;49.700;10.770;2023-10-09T00:55:34;6.15;;;2.55;;
7703;SDS011;3894;49.700;10.770;2023-10-09T00:58:11;6.88;;;2.30;;
7703;SDS011;3894;49.700;10.770;2023-10-09T01:00:38;7.38;;;2.38;;
7703;SDS011;3894;49.700;10.770;2023-10-09T01:03:12;8.40;;;2.40;;
7703;SDS011;3894;49.700;10.770;2023-10-09T01:05:51;6.32;;;2.15;;
7703;SDS011;3894;49.700;10.770;2023-10-09T01:08:21;7.50;;;2.95;;
7703;SDS011;3894;49.700;10.770;2023-10-09T01:11:16;7.32;;;1.83;;
7703;SDS011;3894;49.700;10.770;2023-10-09T01:13:54;6.60;;;2.30;;
7703;SDS011;3894;49.700;10.770;2023-10-09T01:16:36;6.10;;;2.03;;
7703;SDS011;3894;49.700;10.770;2023-10-09T01:19:01;6.30;;;2.13;;
7703;SDS011;3894;49.700;10.770;2023-10-09T01:21:37;6.28;;;1.70;;
7703;SDS011;3894;49.700;10.770;2023-10-09T01:24:04;6.43;;;1.73;;
7703;SDS011;3894;49.700;10.770;2023-10-09T01:26:35;5.40;;;1.75;;
7703;SDS011;3894;49.700;10.770;2023-10-09T01:29:08;6.85;;;2.10;;
7703;SDS011;3894;49.700;10.770;2023-10-09T01:31:43;5.45;;;2.00;;
7703;SDS011;3894;49.700;10.770;2023-10-09T01:34:25;5.38;;;1.70;;
7703;SDS011;3894;49.700;10.770;2023-10-09T01:37:08;5.90;;;2.28;;
7703;SDS011;3894;49.700;10.770;2023-10-09T01:39:54;5.70;;;2.40;;
7703;SDS011;3894;49.700;10.770;2023-10-09T01:42:23;6.22;;;1.90;;
7703;SDS011;3894;49.700;10.770;2023-10-09T01:45:09;7.63;;;2.40;;
7703;SDS011;3894;49.700;10.770;2023-10-09T01:47:36;7.90;;;2.45;;
7703;SDS011;3894;49.700;10.770;2023-10-09T01:50:03;6.45;;;2.85;;
7703;SDS011;3894;49.700;10.770;2023-10-09T01:52:30;5.78;;;2.10;;
7703;SDS011;3894;49.700;10.770;2023-10-09T01:54:55;6.82;;;2.45;;
7703;SDS011;3894;49.700;10.770;2023-10-09T01:57:28;6.75;;;1.70;;
7703;SDS011;3894;49.700;10.770;2023-10-09T01:59:55;3.58;;;1.13;;
7703;SDS011;3894;49.700;10.770;2023-10-09T02:02:24;5.05;;;1.20;;
7703;SDS011;3894;49.700;10.770;2023-10-09T02:05:00;4.28;;;1.33;;
7703;SDS011;3894;49.700;10.770;2023-10-09T02:07:36;4.22;;;1.05;;
7703;SDS011;3894;49.700;10.770;2023-10-09T02:10:08;4.90;;;1.10;;
7703;SDS011;3894;49.700;10.770;2023-10-09T02:12:50;4.43;;;1.45;;
7703;SDS011;3894;49.700;10.770;2023-10-09T02:15:25;4.95;;;1.52;;
7703;SDS011;3894;49.700;10.770;2023-10-09T02:18:06;5.55;;;1.73;;
7703;SDS011;3894;49.700;10.770;2023-10-09T02:23:30;5.57;;;1.65;;
7703;SDS011;3894;49.700;10.770;2023-10-09T02:26:06;6.68;;;1.65;;
7703;SDS011;3894;49.700;10.770;2023-10-09T02:28:33;5.25;;;1.65;;
7703;SDS011;3894;49.700;10.770;2023-10-09T02:30:59;5.03;;;1.73;;
7703;SDS011;3894;49.700;10.770;2023-10-09T02:33:36;5.07;;;1.70;;
7703;SDS011;3894;49.700;10.770;2023-10-09T02:36:04;6.30;;;2.47;;
7703;SDS011;3894;49.700;10.770;2023-10-09T02:38:34;8.55;;;2.65;;
7703;SDS011;3894;49.700;10.770;2023-10-09T02:41:02;4.97;;;1.65;;
7703;SDS011;3894;49.700;10.770;2023-10-09T02:43:28;7.10;;;2.17;;
7703;SDS011;3894;49.700;10.770;2023-10-09T02:46:06;4.75;;;1.77;;
7703;SDS011;3894;49.700;10.770;2023-10-09T02:48:40;8.20;;;2.60;;
7703;SDS011;3894;49.700;10.770;2023-10-09T02:51:11;8.77;;;2.75;;
7703;SDS011;3894;49.700;10.770;2023-10-09T02:53:46;5.55;;;2.30;;
7703;SDS011;3894;49.700;10.770;2023-10-09T02:56:14;6.70;;;2.47;;
7703;SDS011;3894;49.700;10.770;2023-10-09T02:58:42;8.32;;;2.22;;
7703;SDS011;3894;49.700;10.770;2023-10-09T03:01:12;8.38;;;2.38;;
7703;SDS011;3894;49.700;10.770;2023-10-09T03:03:41;7.15;;;2.25;;
7703;SDS011;3894;49.700;10.770;2023-10-09T03:06:12;6.93;;;2.05;;
7703;SDS011;3894;49.700;10.770;2023-10-09T03:08:39;5.97;;;2.25;;
7703;SDS011;3894;49.700;10.770;2023-10-09T03:11:07;7.78;;;3.55;;
7703;SDS011;3894;49.700;10.770;2023-10-09T03:13:40;5.88;;;2.38;;
7703;SDS011;3894;49.700;10.770;2023-10-09T03:16:08;7.20;;;2.60;;
7703;SDS011;3894;49.700;10.770;2023-10-09T03:18:39;7.15;;;3.15;;
7703;SDS011;3894;49.700;10.770;2023-10-09T03:21:05;7.07;;;2.63;;
7703;SDS011;3894;49.700;10.770;2023-10-09T03:23:31;7.88;;;3.05;;
7703;SDS011;3894;49.700;10.770;2023-10-09T03:25:57;7.85;;;3.08;;
7703;SDS011;3894;49.700;10.770;2023-10-09T03:28:23;6.40;;;2.67;;
7703;SDS011;3894;49.700;10.770;2023-10-09T03:30:49;7.70;;;3.08;;
7703;SDS011;3894;49.700;10.770;2023-10-09T03:33:15;7.88;;;2.83;;
7703;SDS011;3894;49.700;10.770;2023-10-09T03:35:42;7.43;;;2.28;;
7703;SDS011;3894;49.700;10.770;2023-10-09T03:38:08;8.13;;;2.72;;
7703;SDS011;3894;49.700;10.770;2023-10-09T03:40:43;8.63;;;3.00;;
7703;SDS011;3894;49.700;10.770;2023-10-09T03:43:12;6.88;;;2.58;;
7703;SDS011;3894;49.700;10.770;2023-10-09T03:45:39;6.63;;;2.38;;
7703;SDS011;3894;49.700;10.770;2023-10-09T03:48:11;7.95;;;2.13;;
7703;SDS011;3894;49.700;10.770;2023-10-09T03:50:57;6.25;;;2.47;;
7703;SDS011;3894;49.700;10.770;2023-10-09T03:53:38;5.10;;;1.85;;
7703;SDS011;3894;49.700;10.770;2023-10-09T03:56:12;8.10;;;2.25;;
7703;SDS011;3894;49.700;10.770;2023-10-09T03:58:38;6.40;;;1.88;;
7703;SDS011;3894;49.700;10.770;2023-10-09T04:01:10;7.93;;;2.00;;
7703;SDS011;3894;49.700;10.770;2023-10-09T04:03:47;5.35;;;1.90;;
7703;SDS011;3894;49.700;10.770;2023-10-09T04:06:13;5.68;;;2.05;;
7703;SDS011;3894;49.700;10.770;2023-10-09T04:08:42;7.03;;;2.15;;
7703;SDS011;3894;49.700;10.770;2023-10-09T04:11:13;7.13;;;1.83;;
7703;SDS011;3894;49.700;10.770;2023-10-09T04:13:45;6.97;;;2.08;;
7703;SDS011;3894;49.700;10.770;2023-10-09T04:16:11;7.20;;;2.15;;
7703;SDS011;3894;49.700;10.770;2023-10-09T04:18:55;6.57;;;1.77;;
7703;SDS011;3894;49.700;10.770;2023-10-09T04:21:22;5.57;;;2.00;;
7703;SDS011;3894;49.700;10.770;2023-10-09T04:24:01;7.75;;;1.95;;
7703;SDS011;3894;49.700;10.770;2023-10-09T04:26:41;6.30;;;2.13;;
7703;SDS011;3894;49.700;10.770;2023-10-09T04:29:14;5.45;;;1.75;;
7703;SDS011;3894;49.700;10.770;2023-10-09T04:31:51;6.22;;;1.90;;
7703;SDS011;3894;49.700;10.770;2023-10-09T04:34:18;4.88;;;1.73;;
7703;SDS011;3894;49.700;10.770;2023-10-09T04:36:49;5.40;;;1.73;;
7703;SDS011;3894;49.700;10.770;2023-10-09T04:39:16;6.18;;;2.08;;
7703;SDS011;3894;49.700;10.770;2023-10-09T04:42:01;7.80;;;2.28;;
7703;SDS011;3894;49.700;10.770;2023-10-09T04:44:46;7.03;;;2.03;;
7703;SDS011;3894;49.700;10.770;2023-10-09T04:47:30;5.75;;;1.75;;
7703;SDS011;3894;49.700;10.770;2023-10-09T04:50:06;7.10;;;2.40;;
7703;SDS011;3894;49.700;10.770;2023-10-09T04:52:54;7.20;;;2.40;;
7703;SDS011;3894;49.700;10.770;2023-10-09T04:55:20;7.40;;;2.30;;
7703;SDS011;3894;49.700;10.770;2023-10-09T04:57:49;8.00;;;2.38;;
7703;SDS011;3894;49.700;10.770;2023-10-09T05:00:34;7.47;;;2.78;;
7703;SDS011;3894;49.700;10.770;2023-10-09T05:03:00;8.95;;;3.10;;
7703;SDS011;3894;49.700;10.770;2023-10-09T05:05:38;8.20;;;2.55;;
7703;SDS011;3894;49.700;10.770;2023-10-09T05:08:13;8.93;;;2.88;;
7703;SDS011;3894;49.700;10.770;2023-10-09T05:13:40;13.00;;;4.40;;
7703;SDS011;3894;49.700;10.770;2023-10-09T05:18:55;7.43;;;2.90;;
7703;SDS011;3894;49.700;10.770;2023-10-09T05:21:31;9.55;;;3.28;;
7703;SDS011;3894;49.700;10.770;2023-10-09T05:23:59;8.50;;;3.50;;
7703;SDS011;3894;49.700;10.770;2023-10-09T05:26:38;8.27;;;2.70;;
7703;SDS011;3894;49.700;10.770;2023-10-09T05:29:14;7.10;;;2.83;;
7703;SDS011;3894;49.700;10.770;2023-10-09T05:31:47;7.95;;;2.72;;
7703;SDS011;3894;49.700;10.770;2023-10-09T05:34:32;12.27;;;3.03;;
7703;SDS011;3894;49.700;10.770;2023-10-09T05:37:02;8.50;;;2.97;;
7703;SDS011;3894;49.700;10.770;2023-10-09T05:39:49;8.18;;;3.58;;
7703;SDS011;3894;49.700;10.770;2023-10-09T05:42:25;8.68;;;3.78;;
7703;SDS011;3894;49.700;10.770;2023-10-09T05:45:09;8.15;;;3.35;;
7703;SDS011;3894;49.700;10.770;2023-10-09T05:50:28;9.93;;;3.35;;
7703;SDS011;3894;49.700;10.770;2023-10-09T05:52:58;9.02;;;3.80;;
7703;SDS011;3894;49.700;10.770;2023-10-09T05:55:27;9.50;;;3.42;;
7703;SDS011;3894;49.700;10.770;2023-10-09T05:58:12;8.98;;;3.65;;
7703;SDS011;3894;49.700;10.770;2023-10-09T06:00:44;9.20;;;3.67;;
7703;SDS011;3894;49.700;10.770;2023-10-09T06:03:28;8.70;;;3.67;;
7703;SDS011;3894;49.700;10.770;2023-10-09T06:06:20;9.93;;;3.90;;
7703;SDS011;3894;49.700;10.770;2023-10-09T06:08:59;11.88;;;3.92;;
7703;SDS011;3894;49.700;10.770;2023-10-09T06:11:38;9.73;;;3.92;;
7703;SDS011;3894;49.700;10.770;2023-10-09T06:14:05;12.48;;;3.97;;
7703;SDS011;3894;49.700;10.770;2023-10-09T06:16:38;9.55;;;4.38;;
7703;SDS011;3894;49.700;10.770;2023-10-09T06:19:07;8.32;;;4.05;;
7703;SDS011;3894;49.700;10.770;2023-10-09T06:21:33;9.85;;;3.55;;
7703;SDS011;3894;49.700;10.770;2023-10-09T06:24:21;9.57;;;3.53;;
7703;SDS011;3894;49.700;10.770;2023-10-09T06:27:06;10.05;;;3.42;;
7703;SDS011;3894;49.700;10.770;2023-10-09T06:29:31;12.02;;;3.30;;
7703;SDS011;3894;49.700;10.770;2023-10-09T06:32:01;10.45;;;3.60;;
7703;SDS011;3894;49.700;10.770;2023-10-09T06:34:45;8.10;;;3.90;;
7703;SDS011;3894;49.700;10.770;2023-10-09T06:37:22;7.85;;;3.30;;
7703;SDS011;3894;49.700;10.770;2023-10-09T06:39:48;9.38;;;2.90;;
7703;SDS011;3894;49.700;10.770;2023-10-09T06:42:23;7.38;;;3.17;;
7703;SDS011;3894;49.700;10.770;2023-10-09T06:45:09;10.73;;;3.28;;
7703;SDS011;3894;49.700;10.770;2023-10-09T06:47:48;8.88;;;3.25;;
7703;SDS011;3894;49.700;10.770;2023-10-09T06:50:35;8.10;;;3.10;;
7703;SDS011;3894;49.700;10.770;2023-10-09T06:53:19;9.50;;;2.97;;
7703;SDS011;3894;49.700;10.770;2023-10-09T06:55:45;9.55;;;3.00;;
7703;SDS011;3894;49.700;10.770;2023-10-09T06:58:17;9.88;;;3.15;;
7703;SDS011;3894;49.700;10.770;2023-10-09T07:00:52;8.07;;;3.08;;
7703;SDS011;3894;49.700;10.770;2023-10-09T07:03:27;8.02;;;3.13;;
7703;SDS011;3894;49.700;10.770;2023-10-09T07:06:07;9.15;;;3.05;;
7703;SDS011;3894;49.700;10.770;2023-10-09T07:08:51;10.10;;;3.17;;
7703;SDS011;3894;49.700;10.770;2023-10-09T07:11:33;9.90;;;3.30;;
7703;SDS011;3894;49.700;10.770;2023-10-09T07:14:05;9.95;;;3.90;;
7703;SDS011;3894;49.700;10.770;2023-10-09T07:16:54;9.75;;;3.72;;
7703;SDS011;3894;49.700;10.770;2023-10-09T07:19:42;9.55;;;3.72;;
7703;SDS011;3894;49.700;10.770;2023-10-09T07:22:08;10.52;;;3.78;;
7703;SDS011;3894;49.700;10.770;2023-10-09T07:24:49;10.07;;;3.90;;
7703;SDS011;3894;49.700;10.770;2023-10-09T07:30:07;9.05;;;3.47;;
7703;SDS011;3894;49.700;10.770;2023-10-09T07:32:54;9.90;;;3.75;;
7703;SDS011;3894;49.700;10.770;2023-10-09T07:35:35;10.50;;;3.35;;
7703;SDS011;3894;49.700;10.770;2023-10-09T07:38:08;12.52;;;3.60;;
7703;SDS011;3894;49.700;10.770;2023-10-09T07:40:34;10.25;;;3.00;;
7703;SDS011;3894;49.700;10.770;2023-10-09T07:43:19;11.35;;;3.40;;
7703;SDS011;3894;49.700;10.770;2023-10-09T07:45:51;9.48;;;4.00;;
7703;SDS011;3894;49.700;10.770;2023-10-09T07:48:23;9.90;;;3.67;;
7703;SDS011;3894;49.700;10.770;2023-10-09T07:50:51;8.93;;;3.17;;
7703;SDS011;3894;49.700;10.770;2023-10-09T07:53:22;11.52;;;3.53;;
7703;SDS011;3894;49.700;10.770;2023-10-09T07:55:54;10.15;;;3.55;;
7703;SDS011;3894;49.700;10.770;2023-10-09T07:58:26;9.57;;;3.67;;
7703;SDS011;3894;49.700;10.770;2023-10-09T08:00:54;11.38;;;3.60;;
7703;SDS011;3894;49.700;10.770;2023-10-09T08:03:40;8.40;;;3.25;;
7703;SDS011;3894;49.700;10.770;2023-10-09T08:06:22;10.10;;;3.90;;
7703;SDS011;3894;49.700;10.770;2023-10-09T08:09:09;11.88;;;4.03;;
7703;SDS011;3894;49.700;10.770;2023-10-09T08:11:38;7.68;;;2.90;;
7703;SDS011;3894;49.700;10.770;2023-10-09T08:14:10;9.82;;;3.90;;
7703;SDS011;3894;49.700;10.770;2023-10-09T08:16:55;10.95;;;3.60;;
7703;SDS011;3894;49.700;10.770;2023-10-09T08:19:39;12.20;;;3.95;;
7703;SDS011;3894;49.700;10.770;2023-10-09T08:22:21;10.18;;;4.55;;
7703;SDS011;3894;49.700;10.770;2023-10-09T08:24:55;11.45;;;3.78;;
7703;SDS011;3894;49.700;10.770;2023-10-09T08:27:22;13.35;;;4.03;;
7703;SDS011;3894;49.700;10.770;2023-10-09T08:30:00;9.48;;;3.95;;
7703;SDS011;3894;49.700;10.770;2023-10-09T08:35:50;12.10;;;4.07;;
7703;SDS011;3894;49.700;10.770;2023-10-09T08:38:16;9.07;;;3.60;;
7703;SDS011;3894;49.700;10.770;2023-10-09T08:40:48;9.32;;;3.53;;
7703;SDS011;3894;49.700;10.770;2023-10-09T08:43:16;10.25;;;4.30;;
7703;SDS011;3894;49.700;10.770;2023-10-09T08:45:47;16.80;;;3.90;;
7703;SDS011;3894;49.700;10.770;2023-10-09T08:48:17;11.48;;;3.63;;
7703;SDS011;3894;49.700;10.770;2023-10-09T08:50:46;10.75;;;3.47;;
7703;SDS011;3894;49.700;10.770;2023-10-09T08:53:19;11.80;;;4.10;;
7703;SDS011;3894;49.700;10.770;2023-10-09T08:55:45;13.82;;;4.07;;
7703;SDS011;3894;49.700;10.770;2023-10-09T08:58:12;9.50;;;3.90;;
7703;SDS011;3894;49.700;10.770;2023-10-09T09:00:50;11.00;;;4.05;;
7703;SDS011;3894;49.700;10.770;2023-10-09T09:03:17;10.77;;;3.15;;
7703;SDS011;3894;49.700;10.770;2023-10-09T09:05:48;17.05;;;4.88;;
7703;SDS011;3894;49.700;10.770;2023-10-09T09:08:27;11.68;;;4.45;;
7703;SDS011;3894;49.700;10.770;2023-10-09T09:11:00;11.38;;;3.05;;
7703;SDS011;3894;49.700;10.770;2023-10-09T09:13:48;8.30;;;3.22;;
7703;SDS011;3894;49.700;10.770;2023-10-09T09:16:34;11.90;;;4.10;;
7703;SDS011;3894;49.700;10.770;2023-10-09T09:19:05;14.18;;;4.47;;
7703;SDS011;3894;49.700;10.770;2023-10-09T09:21:35;10.00;;;3.70;;
7703;SDS011;3894;49.700;10.770;2023-10-09T09:24:09;10.45;;;3.30;;
7703;SDS011;3894;49.700;10.770;2023-10-09T09:26:49;12.73;;;3.80;;
7703;SDS011;3894;49.700;10.770;2023-10-09T09:29:45;9.82;;;3.40;;
7703;SDS011;3894;49.700;10.770;2023-10-09T09:32:29;11.38;;;3.70;;
7703;SDS011;3894;49.700;10.770;2023-10-09T09:35:01;9.90;;;3.33;;
7703;SDS011;3894;49.700;10.770;2023-10-09T09:37:29;12.10;;;3.80;;
7703;SDS011;3894;49.700;10.770;2023-10-09T09:39:58;10.18;;;3.58;;
7703;SDS011;3894;49.700;10.770;2023-10-09T09:42:25;9.25;;;3.22;;
7703;SDS011;3894;49.700;10.770;2023-10-09T09:44:52;12.15;;;4.03;;
7703;SDS011;3894;49.700;10.770;2023-10-09T09:47:20;18.88;;;4.32;;
7703;SDS011;3894;49.700;10.770;2023-10-09T09:49:51;16.10;;;4.15;;
7703;SDS011;3894;49.700;10.770;2023-10-09T09:52:36;10.10;;;3.83;;
7703;SDS011;3894;49.700;10.770;2023-10-09T09:55:10;10.13;;;4.15;;
7703;SDS011;3894;49.700;10.770;2023-10-09T09:57:47;8.52;;;3.08;;
7703;SDS011;3894;49.700;10.770;2023-10-09T10:00:20;10.15;;;3.13;;
7703;SDS011;3894;49.700;10.770;2023-10-09T10:03:12;11.25;;;4.15;;
7703;SDS011;3894;49.700;10.770;2023-10-09T10:05:42;25.20;;;11.32;;
7703;SDS011;3894;49.700;10.770;2023-10-09T10:08:20;15.82;;;5.82;;
7703;SDS011;3894;49.700;10.770;2023-10-09T10:10:46;14.48;;;4.47;;
7703;SDS011;3894;49.700;10.770;2023-10-09T10:13:15;11.40;;;4.30;;
7703;SDS011;3894;49.700;10.770;2023-10-09T10:18:21;11.85;;;5.15;;
7703;SDS011;3894;49.700;10.770;2023-10-09T10:21:10;11.63;;;4.95;;
7703;SDS011;3894;49.700;10.770;2023-10-09T10:23:44;11.25;;;4.32;;
7703;SDS011;3894;49.700;10.770;2023-10-09T10:26:18;11.38;;;4.57;;
7703;SDS011;3894;49.700;10.770;2023-10-09T10:31:57;11.50;;;4.13;;
7703;SDS011;3894;49.700;10.770;2023-10-09T10:37:21;11.43;;;4.75;;
7703;SDS011;3894;49.700;10.770;2023-10-09T10:39:53;11.27;;;4.28;;
7703;SDS011;3894;49.700;10.770;2023-10-09T10:42:24;10.10;;;3.92;;
7703;SDS011;3894;49.700;10.770;2023-10-09T10:45:02;10.45;;;3.67;;
7703;SDS011;3894;49.700;10.770;2023-10-09T10:47:48;9.77;;;4.10;;
7703;SDS011;3894;49.700;10.770;2023-10-09T10:50:17;10.35;;;5.40;;
7703;SDS011;3894;49.700;10.770;2023-10-09T10:53:08;13.35;;;3.97;;
7703;SDS011;3894;49.700;10.770;2023-10-09T10:55:54;13.32;;;3.85;;
7703;SDS011;3894;49.700;10.770;2023-10-09T10:58:21;11.60;;;3.55;;
7703;SDS011;3894;49.700;10.770;2023-10-09T11:00:56;12.07;;;3.60;;
7703;SDS011;3894;49.700;10.770;2023-10-09T11:03:21;10.45;;;3.58;;
7703;SDS011;3894;49.700;10.770;2023-10-09T11:06:06;12.68;;;4.85;;
7703;SDS011;3894;49.700;10.770;2023-10-09T11:08:43;12.48;;;3.60;;
7703;SDS011;3894;49.700;10.770;2023-10-09T11:11:19;13.43;;;4.53;;
7703;SDS011;3894;49.700;10.770;2023-10-09T11:13:45;12.05;;;4.75;;
7703;SDS011;3894;49.700;10.770;2023-10-09T11:16:23;12.05;;;4.25;;
7703;SDS011;3894;49.700;10.770;2023-10-09T11:19:08;12.68;;;4.28;;
7703;SDS011;3894;49.700;10.770;2023-10-09T11:21:54;11.07;;;4.00;;
7703;SDS011;3894;49.700;10.770;2023-10-09T11:24:33;14.02;;;3.38;;
7703;SDS011;3894;49.700;10.770;2023-10-09T11:26:59;10.15;;;2.55;;
7703;SDS011;3894;49.700;10.770;2023-10-09T11:29:33;10.63;;;3.28;;
7703;SDS011;3894;49.700;10.770;2023-10-09T11:32:08;8.57;;;1.90;;
7703;SDS011;3894;49.700;10.770;2023-10-09T11:34:43;9.88;;;3.22;;
7703;SDS011;3894;49.700;10.770;2023-10-09T11:37:19;11.65;;;2.90;;
7703;SDS011;3894;49.700;10.770;2023-10-09T11:39:57;9.40;;;4.38;;
7703;SDS011;3894;49.700;10.770;2023-10-09T11:42:24;12.82;;;5.30;;
7703;SDS011;3894;49.700;10.770;2023-10-09T11:45:06;12.00;;;7.97;;
7703;SDS011;3894;49.700;10.770;2023-10-09T11:47:50;9.15;;;3.22;;
7703;SDS011;3894;49.700;10.770;2023-10-09T11:50:38;7.50;;;2.85;;
7703;SDS011;3894;49.700;10.770;2023-10-09T11:53:42;10.00;;;2.75;;
7703;SDS011;3894;49.700;10.770;2023-10-09T11:56:08;8.95;;;2.53;;
7703;SDS011;3894;49.700;10.770;2023-10-09T11:58:40;9.30;;;2.42;;
7703;SDS011;3894;49.700;10.770;2023-10-09T12:01:12;12.30;;;3.30;;
7703;SDS011;3894;49.700;10.770;2023-10-09T12:03:48;10.93;;;2.83;;
7703;SDS011;3894;49.700;10.770;2023-10-09T12:06:18;11.43;;;2.65;;
7703;SDS011;3894;49.700;10.770;2023-10-09T12:08:47;14.27;;;2.63;;
7703;SDS011;3894;49.700;10.770;2023-10-09T12:11:14;9.38;;;2.13;;
7703;SDS011;3894;49.700;10.770;2023-10-09T12:16:21;7.57;;;2.38;;
7703;SDS011;3894;49.700;10.770;2023-10-09T12:18:47;9.45;;;1.75;;
7703;SDS011;3894;49.700;10.770;2023-10-09T12:21:18;11.52;;;2.53;;
7703;SDS011;3894;49.700;10.770;2023-10-09T12:23:44;9.80;;;3.63;;
7703;SDS011;3894;49.700;10.770;2023-10-09T12:26:12;10.88;;;3.03;;
7703;SDS011;3894;49.700;10.770;2023-10-09T12:28:39;9.05;;;2.88;;
7703;SDS011;3894;49.700;10.770;2023-10-09T12:31:15;11.07;;;3.60;;
7703;SDS011;3894;49.700;10.770;2023-10-09T12:33:44;13.35;;;4.05;;
7703;SDS011;3894;49.700;10.770;2023-10-09T12:36:14;11.15;;;3.30;;
7703;SDS011;3894;49.700;10.770;2023-10-09T12:38:45;11.55;;;3.85;;
7703;SDS011;3894;49.700;10.770;2023-10-09T12:41:15;12.15;;;4.50;;
7703;SDS011;3894;49.700;10.770;2023-10-09T12:43:54;9.45;;;3.83;;
7703;SDS011;3894;49.700;10.770;2023-10-09T12:46:22;7.60;;;2.33;;
7703;SDS011;3894;49.700;10.770;2023-10-09T12:48:51;10.30;;;2.70;;
7703;SDS011;3894;49.700;10.770;2023-10-09T12:51:19;9.30;;;3.42;;
7703;SDS011;3894;49.700;10.770;2023-10-09T12:53:50;10.95;;;4.95;;
7703;SDS011;3894;49.700;10.770;2023-10-09T12:56:22;17.58;;;8.68;;
7703;SDS011;3894;49.700;10.770;2023-10-09T12:58:57;12.30;;;5.55;;
7703;SDS011;3894;49.700;10.770;2023-10-09T13:01:26;8.35;;;2.97;;
7703;SDS011;3894;49.700;10.770;2023-10-09T13:03:57;13.73;;;5.22;;
7703;SDS011;3894;49.700;10.770;2023-10-09T13:06:25;10.00;;;3.50;;
7703;SDS011;3894;49.700;10.770;2023-10-09T13:08:51;9.25;;;3.45;;
7703;SDS011;3894;49.700;10.770;2023-10-09T13:11:17;10.75;;;2.53;;
7703;SDS011;3894;49.700;10.770;2023-10-09T13:13:44;9.93;;;2.83;;
7703;SDS011;3894;49.700;10.770;2023-10-09T13:16:24;9.75;;;3.25;;
7703;SDS011;3894;49.700;10.770;2023-10-09T13:18:51;9.50;;;2.00;;
7703;SDS011;3894;49.700;10.770;2023-10-09T13:21:25;11.65;;;2.45;;
7703;SDS011;3894;49.700;10.770;2023-10-09T13:23:51;8.90;;;2.95;;
7703;SDS011;3894;49.700;10.770;2023-10-09T13:26:20;8.25;;;3.10;;
7703;SDS011;3894;49.700;10.770;2023-10-09T13:31:19;30.42;;;12.68;;
7703;SDS011;3894;49.700;10.770;2023-10-09T13:33:50;19.08;;;7.10;;
7703;SDS011;3894;49.700;10.770;2023-10-09T13:36:20;14.05;;;6.45;;
7703;SDS011;3894;49.700;10.770;2023-10-09T13:38:54;15.35;;;6.07;;
7703;SDS011;3894;49.700;10.770;2023-10-09T13:41:20;18.08;;;7.75;;
7703;SDS011;3894;49.700;10.770;2023-10-09T13:43:46;11.50;;;4.65;;
7703;SDS011;3894;49.700;10.770;2023-10-09T13:46:12;9.98;;;3.47;;
7703;SDS011;3894;49.700;10.770;2023-10-09T13:48:42;11.50;;;3.03;;
7703;SDS011;3894;49.700;10.770;2023-10-09T13:51:10;9.43;;;2.42;;
7703;SDS011;3894;49.700;10.770;2023-10-09T13:53:42;10.93;;;3.25;;
7703;SDS011;3894;49.700;10.770;2023-10-09T13:56:16;13.73;;;5.63;;
7703;SDS011;3894;49.700;10.770;2023-10-09T13:58:44;14.63;;;5.60;;
7703;SDS011;3894;49.700;10.770;2023-10-09T14:01:10;10.80;;;3.47;;
7703;SDS011;3894;49.700;10.770;2023-10-09T14:03:36;10.55;;;3.10;;
7703;SDS011;3894;49.700;10.770;2023-10-09T14:06:03;31.45;;;15.13;;
7703;SDS011;3894;49.700;10.770;2023-10-09T14:08:37;21.95;;;7.78;;
7703;SDS011;3894;49.700;10.770;2023-10-09T14:11:09;11.73;;;3.03;;
7703;SDS011;3894;49.700;10.770;2023-10-09T14:13:41;9.52;;;2.42;;
7703;SDS011;3894;49.700;10.770;2023-10-09T14:16:07;10.32;;;3.10;;
7703;SDS011;3894;49.700;10.770;2023-10-09T14:18:52;17.85;;;6.93;;
7703;SDS011;3894;49.700;10.770;2023-10-09T14:21:31;24.55;;;9.63;;
7703;SDS011;3894;49.700;10.770;2023-10-09T14:23:58;11.23;;;3.28;;
7703;SDS011;3894;49.700;10.770;2023-10-09T14:26:27;9.65;;;3.30;;
7703;SDS011;3894;49.700;10.770;2023-10-09T14:28:54;12.10;;;3.83;;
7703;SDS011;3894;49.700;10.770;2023-10-09T14:31:22;10.43;;;2.70;;
7703;SDS011;3894;49.700;10.770;2023-10-09T14:33:58;9.82;;;3.08;;
7703;SDS011;3894;49.700;10.770;2023-10-09T14:36:23;9.85;;;2.53;;
7703;SDS011;3894;49.700;10.770;2023-10-09T14:38:58;10.65;;;3.53;;
7703;SDS011;3894;49.700;10.770;2023-10-09T14:41:25;10.77;;;2.55;;
7703;SDS011;3894;49.700;10.770;2023-10-09T14:43:51;11.07;;;3.08;;
7703;SDS011;3894;49.700;10.770;2023-10-09T14:46:18;11.23;;;2.53;;
7703;SDS011;3894;49.700;10.770;2023-10-09T14:48:54;14.65;;;3.78;;
7703;SDS011;3894;49.700;10.770;2023-10-09T14:51:20;14.93;;;3.22;;
7703;SDS011;3894;49.700;10.770;2023-10-09T14:53:53;12.95;;;4.22;;
7703;SDS011;3894;49.700;10.770;2023-10-09T14:56:22;13.23;;;4.40;;
7703;SDS011;3894;49.700;10.770;2023-10-09T14:58:57;9.82;;;3.08;;
7703;SDS011;3894;49.700;10.770;2023-10-09T15:01:24;13.27;;;3.97;;
7703;SDS011;3894;49.700;10.770;2023-10-09T15:03:53;11.93;;;4.30;;
7703;SDS011;3894;49.700;10.770;2023-10-09T15:06:22;21.08;;;7.32;;
7703;SDS011;3894;49.700;10.770;2023-10-09T15:08:54;11.93;;;5.10;;
7703;SDS011;3894;49.700;10.770;2023-10-09T15:11:24;15.43;;;6.07;;
7703;SDS011;3894;49.700;10.770;2023-10-09T15:13:53;12.02;;;4.80;;
7703;SDS011;3894;49.700;10.770;2023-10-09T15:16:21;13.65;;;4.38;;
7703;SDS011;3894;49.700;10.770;2023-10-09T15:18:48;9.73;;;4.10;;
7703;SDS011;3894;49.700;10.770;2023-10-09T15:21:18;12.43;;;3.42;;
7703;SDS011;3894;49.700;10.770;2023-10-09T15:23:47;9.98;;;3.17;;
7703;SDS011;3894;49.700;10.770;2023-10-09T15:26:16;11.73;;;3.58;;
7703;SDS011;3894;49.700;10.770;2023-10-09T15:28:43;11.20;;;2.53;;
7703;SDS011;3894;49.700;10.770;2023-10-09T15:31:09;12.32;;;2.35;;
7703;SDS011;3894;49.700;10.770;2023-10-09T15:33:38;7.85;;;2.72;;
7703;SDS011;3894;49.700;10.770;2023-10-09T15:36:14;10.50;;;3.05;;
7703;SDS011;3894;49.700;10.770;2023-10-09T15:38:43;13.85;;;6.05;;
7703;SDS011;3894;49.700;10.770;2023-10-09T15:41:08;14.27;;;4.68;;
7703;SDS011;3894;49.700;10.770;2023-10-09T15:43:34;11.65;;;3.70;;
7703;SDS011;3894;49.700;10.770;2023-10-09T15:46:00;14.10;;;4.53;;
7703;SDS011;3894;49.700;10.770;2023-10-09T15:48:26;14.63;;;5.38;;
7703;SDS011;3894;49.700;10.770;2023-10-09T15:50:52;14.80;;;3.53;;
7703;SDS011;3894;49.700;10.770;2023-10-09T15:53:18;11.40;;;3.40;;
7703;SDS011;3894;49.700;10.770;2023-10-09T15:55:44;10.45;;;3.63;;
7703;SDS011;3894;49.700;10.770;2023-10-09T15:58:10;10.70;;;3.75;;
7703;SDS011;3894;49.700;10.770;2023-10-09T16:00:36;10.70;;;4.30;;
7703;SDS011;3894;49.700;10.770;2023-10-09T16:03:03;12.90;;;5.18;;